Time;durP1;ratioP1;P1;durP2;ratioP2;P2;SDS_P1;SDS_P2;PMS_P1;PMS_P2;Temp;Humidity;BMP_temperature;BMP_pressure;BME280_temperature;BME280_humidity;BME280_pressure;Samples;Min_cycle;Max_cycle;Signal;HPM_P1;HPM_P2
2022/06/27 00:00:59;;;;;;;11.77;8.55;;;19.00;99.90;;;;;;5115005;28;20106;-57
2022/06/27 00:03:25;;;;;;;11.73;8.38;;;18.90;99.90;;;;;;5114881;28;20044;-57
2022/06/27 00:05:51;;;;;;;11.38;7.28;;;18.90;99.90;;;;;;5115214;28;20035;-57
2022/06/27 00:08:17;;;;;;;11.75;8.32;;;19.00;99.90;;;;;;5115070;28;20024;-57
2022/06/27 00:10:43;;;;;;;11.90;8.27;;;19.00;99.90;;;;;;5114987;28;20015;-57
2022/06/27 00:13:09;;;;;;;13.85;7.88;;;19.00;99.90;;;;;;5114899;28;20059;-57
2022/06/27 00:15:35;;;;;;;9.35;7.50;;;18.90;99.90;;;;;;5115257;28;20078;-57
2022/06/27 00:18:01;;;;;;;11.63;8.75;;;18.90;99.90;;;;;;5114978;28;20032;-57
2022/06/27 00:20:27;;;;;;;20.27;8.13;;;18.90;99.90;;;;;;5115034;28;20030;-57
2022/06/27 00:22:53;;;;;;;13.73;8.65;;;18.90;99.90;;;;;;5114663;28;20475;-57
2022/06/27 00:25:20;;;;;;;14.13;8.50;;;18.90;99.90;;;;;;5114769;28;20404;-57
2022/06/27 00:27:46;;;;;;;11.40;8.13;;;18.90;99.90;;;;;;5114935;28;20590;-57
2022/06/27 00:30:12;;;;;;;11.95;8.82;;;18.80;99.90;;;;;;5114962;28;20035;-57
2022/06/27 00:32:40;;;;;;;13.40;9.60;;;18.70;99.90;;;;;;5114938;28;20024;-57
2022/06/27 00:35:08;;;;;;;12.02;8.55;;;18.70;99.90;;;;;;5114917;28;20027;-57
2022/06/27 00:37:34;;;;;;;13.07;9.13;;;18.70;99.90;;;;;;5114839;28;20039;-57
2022/06/27 00:40:05;;;;;;;10.38;8.65;;;18.60;99.90;;;;;;5117166;28;20024;-57
2022/06/27 00:42:31;;;;;;;12.90;9.52;;;18.60;99.90;;;;;;5117492;28;20111;-57
2022/06/27 00:44:57;;;;;;;14.98;9.77;;;18.60;99.90;;;;;;5118920;28;20047;-56
2022/06/27 00:47:24;;;;;;;14.57;9.10;;;18.60;99.90;;;;;;5117512;28;20481;-56
2022/06/27 00:49:50;;;;;;;12.35;9.43;;;18.50;99.90;;;;;;5117451;28;20477;-56
2022/06/27 00:52:16;;;;;;;13.13;9.00;;;18.50;99.90;;;;;;5117273;28;20035;-57
2022/06/27 00:54:45;;;;;;;13.10;8.82;;;18.50;99.90;;;;;;5118730;28;20024;-57
2022/06/27 00:57:12;;;;;;;12.10;8.90;;;18.50;99.90;;;;;;5118655;28;20548;-57
2022/06/27 00:59:39;;;;;;;13.35;9.25;;;18.50;99.90;;;;;;5118539;28;20034;-57
2022/06/27 01:02:06;;;;;;;13.60;9.57;;;18.50;99.90;;;;;;5117118;28;20160;-57
2022/06/27 01:04:32;;;;;;;15.20;9.27;;;18.40;99.90;;;;;;5118387;28;20384;-56
2022/06/27 01:06:58;;;;;;;14.55;9.43;;;18.40;99.90;;;;;;5118361;28;20209;-57
2022/06/27 01:09:24;;;;;;;12.25;8.73;;;18.40;99.90;;;;;;5117143;28;20020;-56
2022/06/27 01:11:52;;;;;;;12.25;8.85;;;18.40;99.90;;;;;;5116975;28;20071;-57
2022/06/27 01:14:19;;;;;;;15.98;8.77;;;18.40;99.90;;;;;;5116982;28;20035;-57
2022/06/27 01:16:45;;;;;;;12.60;8.80;;;18.30;99.90;;;;;;5118310;28;20496;-56
2022/06/27 01:19:14;;;;;;;9.40;8.40;;;18.30;99.90;;;;;;5118162;27;20208;-57
2022/06/27 01:21:48;;;;;;;11.88;8.32;;;18.20;99.90;;;;;;5118148;28;20486;-57
2022/06/27 01:24:16;;;;;;;11.77;8.23;;;18.20;99.90;;;;;;5116724;28;20480;-57
2022/06/27 01:26:43;;;;;;;13.77;9.20;;;18.20;99.90;;;;;;5116725;28;20028;-57
2022/06/27 01:29:09;;;;;;;15.50;9.25;;;18.10;99.90;;;;;;5116787;28;20358;-57
2022/06/27 01:31:37;;;;;;;13.98;8.95;;;18.10;99.90;;;;;;5116722;28;20034;-57
2022/06/27 01:34:05;;;;;;;13.65;8.70;;;18.10;99.90;;;;;;5116535;28;20082;-56
2022/06/27 01:36:43;;;;;;;12.23;8.63;;;18.10;99.90;;;;;;5116543;28;20023;-57
2022/06/27 01:39:25;;;;;;;11.77;9.07;;;18.10;99.90;;;;;;5116474;28;20031;-57
2022/06/27 01:42:02;;;;;;;13.77;9.73;;;18.10;99.90;;;;;;5116440;28;20024;-57
2022/06/27 01:44:30;;;;;;;10.88;8.75;;;18.00;99.90;;;;;;5116316;28;20085;-57
2022/06/27 01:46:59;;;;;;;12.98;9.15;;;17.90;99.90;;;;;;5117804;28;20042;-57
2022/06/27 01:49:26;;;;;;;14.20;8.75;;;17.80;99.90;;;;;;5116321;28;20050;-57
2022/06/27 01:51:52;;;;;;;12.60;9.30;;;17.90;99.90;;;;;;5115601;28;20055;-57
2022/06/27 01:54:21;;;;;;;12.90;9.05;;;17.90;99.90;;;;;;5116287;28;20027;-57
2022/06/27 01:56:49;;;;;;;10.35;8.93;;;17.80;99.90;;;;;;5116067;28;20039;-57
2022/06/27 01:59:17;;;;;;;13.18;9.27;;;17.80;99.90;;;;;;5116088;28;20062;-57
2022/06/27 02:01:45;;;;;;;11.73;9.30;;;17.80;99.90;;;;;;5116049;28;20172;-56
2022/06/27 02:04:13;;;;;;;11.98;8.77;;;17.80;99.90;;;;;;5115809;28;20119;-56
2022/06/27 02:06:41;;;;;;;13.15;9.65;;;17.80;99.90;;;;;;5117378;28;20019;-56
2022/06/27 02:09:12;;;;;;;22.30;9.67;;;17.90;99.90;;;;;;5115836;28;20027;-57
2022/06/27 02:11:41;;;;;;;14.77;9.40;;;17.80;99.90;;;;;;5115723;28;20355;-56
2022/06/27 02:14:12;;;;;;;14.50;9.77;;;17.70;99.90;;;;;;5115861;28;20081;-57
2022/06/27 02:16:41;;;;;;;17.40;10.27;;;17.80;99.90;;;;;;5115802;28;20395;-57
2022/06/27 02:19:09;;;;;;;14.13;9.48;;;17.70;99.90;;;;;;5117025;28;20396;-57
2022/06/27 02:21:38;;;;;;;12.93;9.27;;;17.50;99.90;;;;;;5115662;28;20114;-57
2022/06/27 02:24:07;;;;;;;13.98;9.60;;;17.60;99.90;;;;;;5116724;28;20558;-57
2022/06/27 02:26:33;;;;;;;11.90;9.57;;;17.60;99.90;;;;;;5116877;28;20469;-57
2022/06/27 02:29:00;;;;;;;11.77;8.73;;;17.50;99.90;;;;;;5116810;28;20035;-57
2022/06/27 02:31:30;;;;;;;14.40;9.95;;;17.50;99.90;;;;;;5116788;28;20374;-57
2022/06/27 02:33:57;;;;;;;10.52;8.77;;;17.50;99.90;;;;;;5116855;28;20039;-57
2022/06/27 02:36:41;;;;;;;13.48;9.80;;;17.50;99.90;;;;;;5116771;28;20035;-57
2022/06/27 02:39:10;;;;;;;12.98;9.30;;;17.50;99.90;;;;;;5116704;28;20037;-57
2022/06/27 02:41:39;;;;;;;12.85;9.55;;;17.50;99.90;;;;;;5116588;28;20034;-57
2022/06/27 02:44:10;;;;;;;12.35;9.68;;;17.50;99.90;;;;;;5115234;28;20055;-57
2022/06/27 02:46:37;;;;;;;12.88;10.20;;;17.40;99.90;;;;;;5116646;28;20032;-57
2022/06/27 02:49:04;;;;;;;13.43;9.80;;;17.40;99.90;;;;;;5115070;28;20024;-57
2022/06/27 02:51:49;;;;;;;18.02;10.40;;;17.30;99.90;;;;;;5115034;28;20072;-57
2022/06/27 02:54:30;;;;;;;14.57;11.10;;;17.20;99.90;;;;;;5116336;28;20421;-57
2022/06/27 02:57:07;;;;;;;14.52;11.57;;;17.20;99.90;;;;;;5114976;28;20035;-57
2022/06/27 02:59:41;;;;;;;17.58;11.77;;;17.30;99.90;;;;;;5114884;28;20507;-57
2022/06/27 03:02:10;;;;;;;15.32;12.75;;;17.30;99.90;;;;;;5149055;27;20032;-57
2022/06/27 03:04:58;;;;;;;19.98;13.40;;;17.30;99.90;;;;;;5114715;28;20020;-57
2022/06/27 03:07:24;;;;;;;19.88;14.30;;;17.30;99.90;;;;;;5114799;28;20028;-57
2022/06/27 03:09:50;;;;;;;17.15;13.70;;;17.20;99.90;;;;;;5115840;28;20138;-57
2022/06/27 03:12:16;;;;;;;20.23;14.55;;;17.30;99.90;;;;;;5114529;28;20481;-57
2022/06/27 03:14:42;;;;;;;19.65;13.88;;;17.30;99.90;;;;;;5114679;28;20031;-57
2022/06/27 03:17:08;;;;;;;19.58;13.85;;;17.20;99.90;;;;;;5114611;28;20023;-57
2022/06/27 03:19:54;;;;;;;20.05;13.88;;;17.30;99.90;;;;;;5115717;28;20481;-57
2022/06/27 03:22:32;;;;;;;19.00;14.07;;;17.20;99.90;;;;;;5114478;28;20054;-57
2022/06/27 03:24:59;;;;;;;20.63;13.18;;;17.20;99.90;;;;;;5114417;28;20028;-57
2022/06/27 03:27:26;;;;;;;18.52;14.18;;;17.20;99.90;;;;;;5114411;28;20111;-57
2022/06/27 03:29:53;;;;;;;23.02;14.35;;;17.30;99.90;;;;;;5114439;28;20038;-57
2022/06/27 03:32:20;;;;;;;21.40;15.50;;;17.30;99.90;;;;;;5114340;28;20030;-57
2022/06/27 03:34:56;;;;;;;19.45;14.43;;;17.30;99.90;;;;;;5115565;28;20095;-56
2022/06/27 03:37:23;;;;;;;19.70;14.93;;;17.30;99.90;;;;;;5114299;28;20024;-57
2022/06/27 03:39:49;;;;;;;19.70;13.43;;;17.50;99.90;;;;;;5114265;28;20440;-57
2022/06/27 03:42:15;;;;;;;19.75;14.23;;;17.50;99.90;;;;;;5114024;28;20143;-57
2022/06/27 03:44:41;;;;;;;23.65;15.13;;;17.50;99.90;;;;;;5115451;28;20048;-57
2022/06/27 03:47:07;;;;;;;21.67;16.50;;;17.50;99.90;;;;;;5115352;28;20024;-57
2022/06/27 03:50:06;;;;;;;22.42;16.17;;;17.50;99.90;;;;;;5080987;28;20128;-57
2022/06/27 03:52:36;;;;;;;17.57;13.87;;;17.60;99.90;;;;;;5114025;28;20039;-57
2022/06/27 03:55:02;;;;;;;15.88;12.57;;;17.60;99.90;;;;;;5113942;28;20507;-57
2022/06/27 03:57:28;;;;;;;16.52;13.25;;;17.70;99.90;;;;;;5113820;28;20027;-57
2022/06/27 03:59:54;;;;;;;25.70;15.25;;;17.60;99.90;;;;;;5115314;28;20120;-57
2022/06/27 04:02:21;;;;;;;17.90;13.25;;;17.70;99.90;;;;;;5113836;28;20039;-57
2022/06/27 04:05:13;;;;;;;22.25;13.93;;;17.80;99.90;;;;;;5098559;28;20039;-57
2022/06/27 04:07:39;;;;;;;19.83;14.60;;;17.80;99.90;;;;;;5113932;28;20031;-57
2022/06/27 04:10:11;;;;;;;15.95;12.85;;;17.90;99.90;;;;;;5113722;28;20042;-57
2022/06/27 04:12:40;;;;;;;20.30;14.48;;;18.00;99.90;;;;;;5113695;28;20408;-57
2022/06/27 04:15:25;;;;;;;19.67;15.63;;;18.10;99.90;;;;;;5115025;28;20542;-57
2022/06/27 04:18:10;;;;;;;17.02;14.10;;;18.20;99.90;;;;;;5115152;28;20116;-57
2022/06/27 04:20:55;;;;;;;19.67;14.10;;;18.30;99.90;;;;;;5115376;28;20084;-56
2022/06/27 04:23:24;;;;;;;21.88;15.60;;;18.30;99.90;;;;;;5113630;28;20027;-57
2022/06/27 04:26:09;;;;;;;20.58;14.95;;;18.40;99.90;;;;;;5114770;28;20015;-57
2022/06/27 04:28:36;;;;;;;21.95;15.63;;;18.50;99.90;;;;;;5113633;28;20034;-57
2022/06/27 04:31:03;;;;;;;21.10;15.10;;;18.60;99.90;;;;;;5113589;28;20024;-57
2022/06/27 04:33:29;;;;;;;21.10;14.50;;;18.70;99.90;;;;;;5113694;28;20035;-57
2022/06/27 04:35:55;;;;;;;18.80;14.18;;;18.80;99.90;;;;;;5114891;28;20031;-57
2022/06/27 04:38:22;;;;;;;22.73;14.88;;;18.90;99.90;;;;;;5113352;28;20046;-57
2022/06/27 04:41:10;;;;;;;19.48;14.25;;;19.00;99.90;;;;;;5113531;28;20028;-57
2022/06/27 04:43:39;;;;;;;23.95;15.18;;;19.10;99.90;;;;;;5113206;28;20038;-57
2022/06/27 04:46:06;;;;;;;27.27;17.48;;;19.20;99.90;;;;;;5113366;28;20039;-57
2022/06/27 04:48:53;;;;;;;22.63;15.68;;;19.30;99.90;;;;;;5103952;28;20081;-57
2022/06/27 04:51:19;;;;;;;21.30;14.80;;;19.40;99.90;;;;;;5113357;28;20082;-57
2022/06/27 04:53:45;;;;;;;18.80;14.90;;;19.50;99.90;;;;;;5114732;28;20111;-57
2022/06/27 04:56:12;;;;;;;27.23;16.67;;;19.60;99.90;;;;;;5114615;28;20039;-57
2022/06/27 04:58:38;;;;;;;25.83;15.65;;;19.60;99.90;;;;;;5113427;28;20031;-57
2022/06/27 05:01:05;;;;;;;34.75;17.23;;;19.70;99.90;;;;;;5113821;28;20032;-57
2022/06/27 05:03:51;;;;;;;23.88;16.08;;;19.90;99.90;;;;;;5114788;28;20040;-57
2022/06/27 05:06:22;;;;;;;21.70;15.40;;;20.00;99.90;;;;;;5113823;28;20485;-57
2022/06/27 05:08:49;;;;;;;23.38;16.00;;;20.10;99.90;;;;;;5113710;28;20020;-57
2022/06/27 05:11:16;;;;;;;19.85;15.23;;;20.30;99.90;;;;;;5113977;28;20027;-57
2022/06/27 05:13:42;;;;;;;22.65;15.32;;;20.40;99.90;;;;;;5114007;28;20043;-57
2022/06/27 05:16:32;;;;;;;20.00;14.80;;;20.50;99.90;;;;;;5109379;28;20109;-57
2022/06/27 05:18:58;;;;;;;18.00;13.75;;;20.60;99.90;;;;;;5113699;28;20032;-57
2022/06/27 05:21:25;;;;;;;21.70;14.38;;;20.70;99.90;;;;;;5115180;28;20036;-57
2022/06/27 05:23:51;;;;;;;23.65;15.82;;;20.70;99.90;;;;;;5113632;28;20032;-57
2022/06/27 05:26:17;;;;;;;23.23;15.63;;;20.80;99.90;;;;;;5113354;28;20035;-57
2022/06/27 05:28:43;;;;;;;22.73;15.27;;;20.90;99.90;;;;;;5102957;28;20028;-57
2022/06/27 05:31:11;;;;;;;24.27;15.73;;;21.00;99.90;;;;;;5110783;28;20047;-57
2022/06/27 05:33:38;;;;;;;22.30;15.20;;;21.10;99.90;;;;;;5102323;28;20051;-57
2022/06/27 05:36:08;;;;;;;23.45;16.08;;;21.20;99.90;;;;;;5101238;27;20024;-57
2022/06/27 05:38:36;;;;;;;18.15;15.45;;;21.30;99.90;;;;;;5097218;28;20031;-57
2022/06/27 05:41:02;;;;;;;19.77;14.63;;;21.40;99.90;;;;;;5129941;27;20036;-57
2022/06/27 05:43:30;;;;;;;24.00;16.20;;;21.50;99.90;;;;;;5101180;28;20072;-57
2022/06/27 05:45:56;;;;;;;23.15;15.05;;;21.50;99.90;;;;;;5111412;28;20054;-57
2022/06/27 05:48:41;;;;;;;27.05;15.90;;;21.60;99.90;;;;;;5099488;28;20129;-57
2022/06/27 05:51:27;;;;;;;28.40;16.60;;;21.80;99.90;;;;;;5101783;28;20055;-57
2022/06/27 05:53:53;;;;;;;20.48;14.90;;;21.90;99.90;;;;;;5095133;28;20079;-57
2022/06/27 05:56:19;;;;;;;28.42;16.65;;;22.00;99.90;;;;;;5108583;27;20028;-58
2022/06/27 05:58:46;;;;;;;35.53;17.80;;;22.20;99.90;;;;;;5112712;28;20042;-57
2022/06/27 06:01:12;;;;;;;21.52;14.63;;;22.30;99.90;;;;;;5107652;28;20323;-58
2022/06/27 06:03:40;;;;;;;28.63;15.65;;;22.50;99.90;;;;;;5104773;28;20484;-58
2022/06/27 06:06:07;;;;;;;26.23;16.13;;;22.60;99.90;;;;;;5113922;28;20023;-58
2022/06/27 06:08:36;;;;;;;25.45;14.88;;;22.70;99.90;;;;;;5109314;28;20480;-58
2022/06/27 06:11:03;;;;;;;23.52;14.43;;;22.90;99.90;;;;;;5100215;28;20031;-58
2022/06/27 06:13:30;;;;;;;18.27;14.48;;;23.00;99.90;;;;;;5106677;28;20107;-58
2022/06/27 06:15:59;;;;;;;23.83;14.20;;;23.10;99.90;;;;;;5106406;28;20027;-58
2022/06/27 06:18:27;;;;;;;22.17;15.18;;;23.30;99.90;;;;;;5108685;28;20287;-58
2022/06/27 06:20:54;;;;;;;28.35;16.70;;;23.30;99.90;;;;;;5096361;28;20036;-57
2022/06/27 06:23:26;;;;;;;33.38;14.13;;;23.40;99.90;;;;;;5107803;27;20488;-58
2022/06/27 06:25:55;;;;;;;18.58;14.35;;;23.60;99.90;;;;;;5102452;27;20032;-58
2022/06/27 06:28:21;;;;;;;30.73;16.80;;;23.70;99.90;;;;;;5105628;28;20073;-57
2022/06/27 06:30:47;;;;;;;17.85;13.95;;;23.80;99.90;;;;;;5098485;28;20027;-58
2022/06/27 06:33:14;;;;;;;18.08;13.70;;;24.00;99.90;;;;;;5109310;28;20476;-58
2022/06/27 06:35:40;;;;;;;20.45;14.07;;;24.10;99.90;;;;;;5110505;28;20031;-58
2022/06/27 06:38:06;;;;;;;17.02;12.93;;;24.20;99.90;;;;;;5102440;28;20039;-58
2022/06/27 06:40:33;;;;;;;17.83;13.85;;;24.30;99.90;;;;;;5112470;28;20034;-58
2022/06/27 06:43:03;;;;;;;22.58;14.00;;;24.50;99.90;;;;;;5106560;28;20621;-58
2022/06/27 06:45:47;;;;;;;18.55;13.02;;;24.60;99.90;;;;;;5109831;27;20042;-57
2022/06/27 06:48:25;;;;;;;16.95;13.50;;;24.80;99.90;;;;;;5100921;27;20484;-58
2022/06/27 06:50:54;;;;;;;19.60;13.77;;;25.00;99.90;;;;;;5109864;28;20551;-58
2022/06/27 06:53:23;;;;;;;15.15;12.63;;;25.20;99.90;;;;;;5116670;28;20077;-58
2022/06/27 06:55:50;;;;;;;21.98;13.52;;;25.40;99.90;;;;;;5109988;28;20034;-58
2022/06/27 06:58:17;;;;;;;19.90;13.48;;;25.50;99.90;;;;;;5101462;28;20039;-58
2022/06/27 07:00:44;;;;;;;21.17;12.77;;;25.70;99.90;;;;;;5098286;28;20559;-57
2022/06/27 07:03:10;;;;;;;22.25;12.90;;;25.90;99.90;;;;;;5110953;28;20080;-58
2022/06/27 07:05:37;;;;;;;19.75;12.45;;;26.10;99.90;;;;;;5102298;28;20136;-57
2022/06/27 07:08:04;;;;;;;17.58;12.23;;;26.40;99.90;;;;;;5109641;27;20042;-57
2022/06/27 07:10:30;;;;;;;15.35;11.73;;;26.60;99.90;;;;;;5104406;27;20024;-57
2022/06/27 07:12:56;;;;;;;15.35;11.00;;;26.90;99.90;;;;;;5103838;28;20048;-57
2022/06/27 07:15:22;;;;;;;16.50;12.05;;;27.10;99.90;;;;;;5116377;28;20035;-57
2022/06/27 07:17:52;;;;;;;19.15;11.88;;;27.30;99.90;;;;;;5116490;28;20120;-58
2022/06/27 07:20:19;;;;;;;13.15;10.07;;;27.50;99.90;;;;;;5116426;28;20119;-58
2022/06/27 07:22:45;;;;;;;17.58;11.60;;;27.80;98.90;;;;;;5111814;28;20028;-57
2022/06/27 07:25:12;;;;;;;14.82;10.45;;;28.10;97.60;;;;;;5110613;28;20023;-57
2022/06/27 07:27:39;;;;;;;18.50;11.20;;;28.30;98.20;;;;;;5103972;28;20027;-57
2022/06/27 07:30:09;;;;;;;21.35;11.10;;;28.50;95.40;;;;;;5115046;28;20023;-57
2022/06/27 07:32:36;;;;;;;18.00;10.77;;;28.80;94.60;;;;;;5109464;28;20035;-57
2022/06/27 07:35:03;;;;;;;29.05;10.52;;;29.10;91.60;;;;;;5106979;28;20016;-58
2022/06/27 07:37:31;;;;;;;16.02;9.55;;;29.30;86.60;;;;;;5103443;28;20035;-58
2022/06/27 07:39:56;;;;;;;17.60;9.50;;;29.50;84.00;;;;;;5108873;28;20031;-58
2022/06/27 07:42:22;;;;;;;15.50;9.68;;;29.70;86.40;;;;;;5108991;28;20092;-57
2022/06/27 07:44:49;;;;;;;12.25;9.27;;;30.00;78.40;;;;;;5100582;28;20111;-57
2022/06/27 07:47:15;;;;;;;16.60;9.50;;;30.10;74.40;;;;;;5103885;28;20023;-57
2022/06/27 07:49:41;;;;;;;13.63;8.85;;;30.30;74.80;;;;;;5098247;27;20031;-57
2022/06/27 07:52:07;;;;;;;12.18;8.82;;;30.50;72.40;;;;;;5109990;27;20500;-57
2022/06/27 07:54:33;;;;;;;25.73;10.30;;;30.80;72.20;;;;;;5109198;28;20031;-57
2022/06/27 07:57:02;;;;;;;20.23;8.73;;;31.10;71.30;;;;;;5107945;28;20027;-57
2022/06/27 07:59:28;;;;;;;14.23;9.48;;;31.40;69.50;;;;;;5104600;28;20032;-58
2022/06/27 08:01:54;;;;;;;13.35;8.48;;;31.40;67.30;;;;;;5109090;28;20053;-58
2022/06/27 08:04:20;;;;;;;14.27;8.52;;;31.70;66.00;;;;;;5113640;28;21122;-58
2022/06/27 08:06:49;;;;;;;11.52;8.40;;;31.90;64.10;;;;;;5114319;28;20043;-58
2022/06/27 08:09:15;;;;;;;19.92;8.18;;;32.10;65.60;;;;;;5114027;28;20346;-58
2022/06/27 08:11:43;;;;;;;10.70;7.95;;;32.10;66.10;;;;;;5114338;28;20039;-58
2022/06/27 08:14:13;;;;;;;26.70;10.68;;;32.00;62.40;;;;;;5115696;28;20464;-58
2022/06/27 08:16:41;;;;;;;16.38;9.02;;;32.30;63.80;;;;;;5115796;28;20028;-57
2022/06/27 08:19:09;;;;;;;12.50;7.97;;;32.00;65.10;;;;;;5115097;28;20035;-58
2022/06/27 08:21:37;;;;;;;22.13;10.57;;;32.40;62.10;;;;;;5114869;28;20079;-59
2022/06/27 08:24:07;;;;;;;16.00;8.50;;;32.60;61.20;;;;;;5106365;28;20115;-58
2022/06/27 08:26:35;;;;;;;17.55;8.77;;;33.00;60.10;;;;;;5104382;28;20028;-58
2022/06/27 08:29:04;;;;;;;20.63;8.93;;;33.20;60.10;;;;;;5103833;28;20024;-58
2022/06/27 08:31:32;;;;;;;16.17;8.23;;;33.50;59.80;;;;;;5110583;28;20057;-58
2022/06/27 08:34:01;;;;;;;13.05;8.13;;;33.30;57.70;;;;;;5110383;28;20043;-58
2022/06/27 08:36:31;;;;;;;9.27;7.18;;;33.50;59.10;;;;;;5114780;28;20036;-58
2022/06/27 08:38:58;;;;;;;10.80;7.20;;;33.90;58.60;;;;;;5114304;28;20023;-58
2022/06/27 08:41:25;;;;;;;8.30;6.45;;;34.10;55.50;;;;;;5108985;28;20091;-58
2022/06/27 08:43:59;;;;;;;11.07;6.90;;;34.10;55.10;;;;;;5115481;28;20084;-58
2022/06/27 08:46:26;;;;;;;17.58;8.23;;;34.30;54.10;;;;;;5115358;28;20366;-59
2022/06/27 08:48:52;;;;;;;13.90;6.72;;;33.80;53.30;;;;;;5114049;28;20074;-58
2022/06/27 08:51:18;;;;;;;11.52;5.75;;;33.30;55.80;;;;;;5107327;28;20106;-58
2022/06/27 08:53:45;;;;;;;8.95;4.68;;;33.80;53.20;;;;;;5104261;28;20024;-59
2022/06/27 08:56:13;;;;;;;15.18;5.45;;;32.70;51.70;;;;;;5106364;28;20053;-58
2022/06/27 08:58:40;;;;;;;10.27;5.13;;;33.20;53.40;;;;;;5099293;28;20035;-58
2022/06/27 09:01:09;;;;;;;8.30;4.25;;;33.20;51.10;;;;;;5095300;28;20050;-58
2022/06/27 09:03:36;;;;;;;6.53;2.95;;;33.20;46.50;;;;;;5111869;27;20126;-58
2022/06/27 09:06:06;;;;;;;7.10;3.90;;;33.10;46.50;;;;;;5109912;27;20028;-59
2022/06/27 09:08:36;;;;;;;;;;;33.20;47.00;;;;;;5108704;28;20040;-58
2022/06/27 09:11:08;;;;;;;10.43;4.97;;;33.10;48.60;;;;;;5108146;28;20323;-58
2022/06/27 09:13:34;;;;;;;5.35;4.38;;;33.60;47.10;;;;;;5102739;27;20439;-58
2022/06/27 09:16:08;;;;;;;5.22;4.00;;;34.00;50.10;;;;;;5110986;28;20038;-59
2022/06/27 09:18:36;;;;;;;9.35;5.05;;;34.30;46.10;;;;;;5114165;27;20031;-59
2022/06/27 09:21:15;;;;;;;6.32;4.05;;;33.60;46.80;;;;;;5109723;28;20023;-58
2022/06/27 09:23:47;;;;;;;7.28;3.83;;;34.20;46.50;;;;;;5113071;27;20091;-58
2022/06/27 09:26:21;;;;;;;9.88;3.55;;;34.50;46.60;;;;;;5107439;27;20472;-58
2022/06/27 09:28:53;;;;;;;7.05;4.10;;;35.00;45.60;;;;;;5106115;28;20098;-59
2022/06/27 09:31:31;;;;;;;8.23;3.30;;;35.20;45.20;;;;;;5110820;28;20077;-58
2022/06/27 09:34:02;;;;;;;8.90;2.05;;;34.60;41.70;;;;;;5105108;28;20034;-58
2022/06/27 09:36:30;;;;;;;4.90;1.73;;;33.80;38.30;;;;;;5107349;28;20027;-59
2022/06/27 09:38:57;;;;;;;6.40;2.55;;;34.50;37.20;;;;;;5102614;28;20028;-59
2022/06/27 09:41:26;;;;;;;5.32;3.00;;;35.20;39.50;;;;;;5091416;28;20035;-59
2022/06/27 09:43:54;;;;;;;10.30;3.83;;;35.60;42.40;;;;;;5105047;27;20079;-59
2022/06/27 09:46:29;;;;;;;9.32;3.28;;;35.80;39.00;;;;;;5102084;28;20301;-59
2022/06/27 09:48:56;;;;;;;9.40;3.47;;;35.50;37.90;;;;;;5109412;28;20053;-59
2022/06/27 09:51:22;;;;;;;5.93;3.13;;;34.70;42.00;;;;;;5114356;28;20461;-59
2022/06/27 09:53:50;;;;;;;23.17;4.55;;;35.40;40.20;;;;;;5104324;28;21756;-58
2022/06/27 09:56:20;;;;;;;13.60;4.20;;;35.90;41.00;;;;;;5105767;28;20062;-58
2022/06/27 09:58:47;;;;;;;11.27;4.00;;;36.30;39.10;;;;;;5110741;28;20035;-59
2022/06/27 10:01:14;;;;;;;6.30;2.80;;;36.50;38.90;;;;;;5100661;28;20043;-58
2022/06/27 10:03:41;;;;;;;8.45;3.08;;;36.30;36.40;;;;;;5100950;28;20020;-58
2022/06/27 10:06:09;;;;;;;17.27;4.05;;;35.30;35.20;;;;;;5103568;28;20088;-59
2022/06/27 10:08:36;;;;;;;5.22;2.80;;;35.60;39.50;;;;;;5100131;27;20020;-59
2022/06/27 10:11:06;;;;;;;5.65;3.22;;;36.00;35.70;;;;;;5114568;28;20049;-58
2022/06/27 10:13:33;;;;;;;3.80;3.00;;;36.30;39.40;;;;;;5113486;27;20469;-58
2022/06/27 10:16:09;;;;;;;8.93;3.78;;;36.60;37.80;;;;;;5109364;28;20063;-58
2022/06/27 10:19:02;;;;;;;7.18;3.50;;;36.90;37.80;;;;;;5104516;28;20034;-58
2022/06/27 10:21:31;;;;;;;11.65;3.25;;;35.80;35.00;;;;;;5110591;28;20028;-59
2022/06/27 10:24:18;;;;;;;9.63;3.55;;;35.00;35.10;;;;;;5112957;28;20028;-58
2022/06/27 10:26:46;;;;;;;11.10;4.30;;;35.00;37.50;;;;;;5103391;28;20023;-58
2022/06/27 10:29:30;;;;;;;5.18;2.80;;;35.80;38.10;;;;;;5104735;28;20085;-58
2022/06/27 10:31:57;;;;;;;4.10;2.83;;;36.20;38.10;;;;;;5109766;27;20393;-59
2022/06/27 10:34:38;;;;;;;22.67;5.63;;;35.70;35.20;;;;;;5110935;28;20031;-58
2022/06/27 10:37:24;;;;;;;12.48;4.38;;;35.10;36.10;;;;;;5112132;28;20020;-58
2022/06/27 10:39:53;;;;;;;13.48;5.30;;;35.50;37.00;;;;;;5107486;28;20046;-58
2022/06/27 10:42:54;;;;;;;7.65;3.53;;;36.40;37.90;;;;;;5113722;28;20076;-58
2022/06/27 10:45:20;;;;;;;6.18;2.92;;;36.50;35.40;;;;;;5116935;28;20024;-58
2022/06/27 10:47:53;;;;;;;12.40;3.80;;;35.60;34.00;;;;;;5116796;28;20030;-58
2022/06/27 10:50:25;;;;;;;11.70;4.32;;;35.20;34.60;;;;;;5116992;28;20020;-58
2022/06/27 10:53:25;;;;;;;24.33;5.38;;;35.90;34.90;;;;;;5116884;28;20027;-58
2022/06/27 10:55:52;;;;;;;9.10;3.40;;;36.30;33.50;;;;;;5116864;28;20036;-58
2022/06/27 10:58:28;;;;;;;10.48;3.60;;;37.00;34.50;;;;;;5115856;28;20125;-58
2022/06/27 11:01:14;;;;;;;7.45;3.20;;;37.50;34.00;;;;;;5116966;28;20037;-58
2022/06/27 11:03:41;;;;;;;7.60;3.65;;;37.80;34.50;;;;;;5116446;28;20457;-59
2022/06/27 11:06:10;;;;;;;8.90;4.28;;;38.10;34.40;;;;;;5116742;28;20020;-58
2022/06/27 11:08:37;;;;;;;8.63;4.15;;;37.20;31.40;;;;;;5115975;28;20038;-59
2022/06/27 11:11:05;;;;;;;9.13;3.95;;;37.30;34.00;;;;;;5115495;28;20036;-59
2022/06/27 11:13:44;;;;;;;8.98;3.75;;;37.30;33.40;;;;;;5115507;28;20097;-58
2022/06/27 11:16:16;;;;;;;13.25;3.33;;;37.80;34.80;;;;;;5115735;28;20031;-58
2022/06/27 11:18:52;;;;;;;10.90;4.18;;;37.90;32.30;;;;;;5115495;28;20504;-58
2022/06/27 11:21:23;;;;;;;10.95;4.22;;;38.10;32.50;;;;;;5115560;28;20103;-59
2022/06/27 11:23:53;;;;;;;17.70;4.60;;;37.70;30.90;;;;;;5114621;28;20105;-58
2022/06/27 11:26:20;;;;;;;;;;;38.10;34.80;;;;;;5116026;28;20053;-58
2022/06/27 11:34:15;;;;;;;9.80;4.25;;;37.70;34.10;;;;;;5115109;28;20032;-58
2022/06/27 11:36:41;;;;;;;5.70;3.78;;;37.90;32.30;;;;;;5115410;28;20488;-58
2022/06/27 11:39:07;;;;;;;13.35;4.72;;;38.00;33.90;;;;;;5116014;28;20035;-58
2022/06/27 11:41:37;;;;;;;7.95;3.58;;;37.70;33.40;;;;;;5115901;28;20027;-58
2022/06/27 11:44:08;;;;;;;7.78;3.83;;;36.40;32.20;;;;;;5116010;28;20362;-58
2022/06/27 11:46:44;;;;;;;16.08;4.68;;;36.20;33.30;;;;;;5116108;28;20034;-58
2022/06/27 11:49:27;;;;;;;20.30;4.57;;;37.00;34.20;;;;;;5115792;28;20064;-58
2022/06/27 11:52:01;;;;;;;25.08;6.20;;;37.00;34.00;;;;;;5103620;28;20035;-58
2022/06/27 11:54:37;;;;;;;7.78;3.90;;;37.20;33.40;;;;;;5114070;28;20047;-58
2022/06/27 11:57:03;;;;;;;7.03;3.45;;;37.30;34.40;;;;;;5114382;28;20035;-58
2022/06/27 11:59:30;;;;;;;9.50;3.97;;;37.60;35.00;;;;;;5114528;28;20480;-58
2022/06/27 12:01:59;;;;;;;9.07;3.85;;;37.70;35.10;;;;;;5114894;28;20034;-58
2022/06/27 12:04:33;;;;;;;8.38;3.90;;;38.30;33.80;;;;;;5114886;28;20492;-58
2022/06/27 12:07:08;;;;;;;11.38;4.40;;;38.50;36.20;;;;;;5114949;28;20027;-58
2022/06/27 12:09:52;;;;;;;16.52;5.30;;;37.90;33.00;;;;;;5114392;28;20027;-58
2022/06/27 12:12:20;;;;;;;12.70;4.57;;;38.10;33.00;;;;;;5114837;28;20121;-58
2022/06/27 12:14:48;;;;;;;11.30;4.20;;;38.20;32.90;;;;;;5114713;28;20035;-58
2022/06/27 12:17:15;;;;;;;7.57;3.40;;;38.20;31.70;;;;;;5114908;28;20024;-59
2022/06/27 12:19:41;;;;;;;8.07;3.40;;;37.30;31.40;;;;;;5114928;28;20058;-58
2022/06/27 12:22:09;;;;;;;9.98;4.10;;;36.30;32.70;;;;;;5114823;28;20072;-58
2022/06/27 12:24:35;;;;;;;7.30;4.03;;;36.50;33.10;;;;;;5114413;28;20030;-58
2022/06/27 12:27:01;;;;;;;13.05;4.40;;;36.80;33.30;;;;;;5114791;28;20023;-58
2022/06/27 12:29:27;;;;;;;12.27;4.35;;;37.00;34.00;;;;;;5114784;28;20024;-58
2022/06/27 12:31:53;;;;;;;8.65;4.22;;;36.70;32.30;;;;;;5114795;28;20377;-58
2022/06/27 12:34:19;;;;;;;11.60;3.95;;;36.20;33.40;;;;;;5114747;28;20082;-58
2022/06/27 12:36:45;;;;;;;15.68;5.15;;;36.00;34.70;;;;;;5118163;28;20103;-59
2022/06/27 12:39:11;;;;;;;19.75;5.55;;;36.10;34.60;;;;;;5118727;28;20035;-58
2022/06/27 12:41:38;;;;;;;9.57;4.20;;;36.60;34.10;;;;;;5118921;28;20114;-58
2022/06/27 12:44:05;;;;;;;12.00;5.00;;;36.70;34.60;;;;;;5118584;28;20032;-58
2022/06/27 12:46:32;;;;;;;9.93;4.32;;;37.20;35.00;;;;;;5118542;28;20031;-58
2022/06/27 12:48:58;;;;;;;7.97;4.18;;;37.30;36.90;;;;;;5118494;28;20082;-59
2022/06/27 12:51:25;;;;;;;11.23;4.90;;;37.40;34.90;;;;;;5118647;28;20076;-59
2022/06/27 12:53:53;;;;;;;9.82;4.43;;;37.50;36.20;;;;;;5118647;28;20040;-58